createdAt,value
2023-04-11T00:01:46.340Z,7.82
2023-04-11T00:06:52.026Z,7.69
2023-04-11T00:11:57.730Z,7.57
2023-04-11T00:17:03.983Z,7.56
2023-04-11T00:22:09.848Z,7.59
2023-04-11T00:27:15.414Z,7.68
2023-04-11T00:32:22.450Z,7.66
2023-04-11T00:37:28.147Z,7.63
2023-04-11T00:42:33.999Z,7.64
2023-04-11T00:47:40.780Z,7.51
2023-04-11T00:52:48.974Z,7.39
2023-04-11T00:57:56.731Z,7.29
2023-04-11T01:03:03.146Z,7.20
2023-04-11T01:08:09.920Z,7.06
2023-04-11T01:13:15.818Z,6.98
2023-04-11T01:18:21.602Z,6.92
2023-04-11T01:23:28.378Z,6.90
2023-04-11T01:28:34.258Z,6.96
2023-04-11T01:33:40.364Z,6.98
2023-04-11T01:38:45.986Z,7.01
2023-04-11T01:43:52.247Z,6.99
2023-04-11T01:49:00.285Z,7.01
2023-04-11T01:54:06.955Z,7.02
2023-04-11T01:59:12.692Z,6.94
2023-04-11T02:04:18.438Z,6.84
2023-04-11T02:09:24.453Z,6.81
2023-04-11T02:14:40.390Z,6.83
2023-04-11T02:19:46.492Z,6.88
2023-04-11T02:24:52.808Z,6.86
2023-04-11T02:29:58.411Z,6.89
2023-04-11T02:35:07.314Z,6.87
2023-04-11T02:40:14.061Z,6.96
2023-04-11T02:45:20.091Z,6.98
2023-04-11T02:50:26.675Z,6.99
2023-04-11T02:55:32.526Z,7.16
2023-04-11T03:00:38.523Z,7.39
2023-04-11T03:05:44.232Z,7.56
2023-04-11T03:10:50.091Z,7.70
2023-04-11T03:15:56.000Z,7.77
2023-04-11T03:21:01.883Z,7.80
2023-04-11T03:26:08.991Z,7.81
2023-04-11T03:31:14.955Z,7.75
2023-04-11T03:36:22.079Z,7.63
2023-04-11T03:41:28.630Z,7.50
2023-04-11T03:46:34.368Z,7.37
2023-04-11T03:51:40.423Z,7.30
2023-04-11T03:56:46.522Z,7.24
2023-04-11T04:01:52.281Z,7.17
2023-04-11T04:06:58.108Z,7.11
2023-04-11T04:12:04.217Z,7.10
2023-04-11T04:17:10.116Z,7.13
2023-04-11T04:22:17.181Z,7.13
2023-04-11T04:27:24.673Z,6.98
2023-04-11T04:32:30.623Z,6.99
2023-04-11T04:37:39.241Z,7.12
2023-04-11T04:42:44.946Z,7.32
2023-04-11T04:47:50.921Z,7.57
2023-04-11T04:52:56.881Z,7.84
2023-04-11T04:58:02.741Z,8.07
2023-04-11T05:03:10.463Z,8.26
2023-04-11T05:08:16.623Z,8.49
2023-04-11T05:13:22.503Z,8.71
2023-04-11T05:18:29.694Z,8.95
2023-04-11T05:23:35.335Z,9.11
2023-04-11T05:28:41.920Z,9.25
2023-04-11T05:33:47.660Z,9.41
2023-04-11T05:38:53.437Z,9.57
2023-04-11T05:43:59.502Z,9.79
2023-04-11T05:49:05.441Z,9.99
2023-04-11T05:54:11.219Z,10.18
2023-04-11T05:59:19.695Z,10.38
2023-04-11T06:04:28.612Z,10.59
2023-04-11T06:09:35.035Z,10.82
2023-04-11T06:14:40.914Z,11.00
2023-04-11T06:19:46.831Z,11.16
2023-04-11T06:24:53.399Z,11.36
2023-04-11T06:29:59.140Z,11.60
2023-04-11T06:35:06.356Z,11.78
2023-04-11T06:40:14.142Z,11.93
2023-04-11T06:45:20.149Z,12.13
2023-04-11T06:50:26.165Z,12.37
2023-04-11T06:55:31.867Z,12.57
2023-04-11T07:00:37.742Z,12.76
2023-04-11T07:05:43.587Z,12.97
2023-04-11T07:10:49.623Z,13.18
2023-04-11T07:15:55.443Z,13.38
2023-04-11T07:21:01.320Z,13.56
2023-04-11T07:26:10.815Z,13.73
2023-04-11T07:31:19.346Z,13.90
2023-04-11T07:36:26.285Z,14.08
2023-04-11T07:41:32.501Z,14.28
2023-04-11T07:46:38.478Z,14.49
2023-04-11T07:51:44.379Z,14.69
2023-04-11T07:56:50.056Z,14.83
2023-04-11T08:02:04.020Z,14.90
2023-04-11T08:07:12.600Z,15.10
2023-04-11T08:12:22.022Z,15.42
2023-04-11T08:17:37.528Z,15.74
2023-04-11T08:22:46.618Z,16.01
2023-04-11T08:27:52.753Z,16.09
2023-04-11T08:32:58.855Z,16.14
2023-04-11T08:38:08.932Z,16.20
2023-04-11T08:43:14.593Z,16.21
2023-04-11T08:48:24.598Z,16.33
2023-04-11T08:53:31.173Z,16.47
2023-04-11T08:58:37.034Z,16.45
2023-04-11T09:03:52.788Z,16.49
2023-04-11T09:08:59.384Z,16.57
2023-04-11T09:14:09.687Z,16.61
2023-04-11T09:19:26.420Z,16.72
2023-04-11T09:24:40.435Z,16.74
2023-04-11T09:29:48.838Z,16.75
2023-04-11T09:35:09.392Z,16.69
2023-04-11T09:40:17.164Z,16.64
2023-04-11T09:45:25.760Z,16.86
2023-04-11T09:50:33.847Z,17.06
2023-04-11T09:55:41.028Z,16.89
2023-04-11T10:00:48.914Z,16.91
2023-04-11T10:05:57.331Z,17.22
2023-04-11T10:11:06.886Z,17.22
2023-04-11T10:16:15.020Z,17.09
2023-04-11T10:21:42.323Z,16.98
2023-04-11T10:26:55.936Z,16.81
2023-04-11T10:32:12.757Z,16.66
2023-04-11T10:37:19.815Z,16.66
2023-04-11T10:42:37.730Z,16.91
2023-04-11T10:47:43.684Z,17.11
2023-04-11T10:52:50.249Z,17.06
2023-04-11T10:58:16.045Z,17.06
2023-04-11T11:03:23.891Z,17.19
2023-04-11T11:08:31.021Z,17.32
2023-04-11T11:13:44.331Z,17.38
2023-04-11T11:18:52.614Z,17.52
2023-04-11T11:24:02.549Z,17.59
2023-04-11T11:29:09.667Z,17.35
2023-04-11T11:34:28.919Z,17.26
2023-04-11T11:39:35.817Z,17.33
2023-04-11T11:44:41.421Z,17.32
2023-04-11T11:49:49.857Z,17.43
2023-04-11T11:54:56.100Z,17.39
2023-04-11T12:00:08.944Z,17.37
2023-04-11T12:05:15.550Z,17.41
2023-04-11T12:10:21.407Z,17.41
2023-04-11T12:15:27.445Z,17.41
2023-04-11T12:20:35.167Z,17.45
2023-04-11T12:25:41.304Z,17.78
2023-04-11T12:30:47.876Z,18.06
2023-04-11T12:35:53.643Z,18.01
2023-04-11T12:41:19.753Z,18.10
2023-04-11T12:46:25.103Z,18.01
2023-04-11T12:51:30.942Z,17.90
2023-04-11T12:56:36.512Z,17.74
2023-04-11T13:01:43.138Z,17.56
2023-04-11T13:06:48.888Z,17.67
2023-04-11T13:11:54.516Z,17.72
2023-04-11T13:17:00.169Z,17.64
2023-04-11T13:22:06.093Z,17.60
2023-04-11T13:27:11.948Z,17.47
2023-04-11T13:32:17.802Z,17.37
2023-04-11T13:37:23.561Z,17.25
2023-04-11T13:42:29.211Z,17.24
2023-04-11T13:47:37.856Z,17.18
2023-04-11T13:52:44.214Z,17.13
2023-04-11T13:57:50.563Z,16.97
2023-04-11T14:02:56.961Z,16.93
2023-04-11T14:08:03.737Z,16.91
2023-04-11T14:18:17.162Z,16.83
2023-04-11T14:23:23.772Z,16.63
2023-04-11T14:28:29.517Z,16.49
2023-04-11T14:33:35.262Z,16.53
2023-04-11T14:38:40.794Z,16.52
2023-04-11T14:43:46.472Z,16.49
2023-04-11T14:48:52.175Z,16.50
2023-04-11T14:53:59.589Z,16.57
2023-04-11T14:59:05.372Z,16.55
2023-04-11T15:04:11.055Z,16.62
2023-04-11T15:09:19.788Z,16.70
2023-04-11T15:14:29.004Z,16.80
2023-04-11T15:19:34.666Z,16.76
2023-04-11T15:24:40.528Z,16.65
2023-04-11T15:29:46.343Z,16.62
2023-04-11T15:34:52.477Z,16.59
2023-04-11T15:39:58.026Z,16.63
2023-04-11T15:45:04.243Z,16.53
2023-04-11T15:50:12.401Z,16.41
2023-04-11T15:55:18.973Z,16.28
2023-04-11T16:00:26.958Z,16.16
2023-04-11T16:05:33.707Z,16.05
2023-04-11T16:10:39.330Z,15.90
2023-04-11T16:15:44.983Z,15.83
2023-04-11T16:20:50.594Z,15.71
2023-04-11T16:25:57.004Z,15.57
2023-04-11T16:31:02.647Z,15.46
2023-04-11T16:36:10.701Z,15.35
2023-04-11T16:41:17.674Z,15.24
2023-04-11T16:46:23.399Z,15.12
2023-04-11T16:51:29.115Z,15.01
2023-04-11T16:56:34.691Z,14.88
2023-04-11T17:01:41.019Z,14.77
2023-04-11T17:06:47.115Z,14.64
2023-04-11T17:11:53.087Z,14.52
2023-04-11T17:16:58.869Z,14.40
2023-04-11T17:22:05.510Z,14.28
2023-04-11T17:27:11.207Z,14.15
2023-04-11T17:32:16.848Z,14.02
2023-04-11T17:37:22.495Z,13.92
2023-04-11T17:42:28.209Z,13.81
2023-04-11T17:47:34.180Z,13.73
2023-04-11T17:52:42.340Z,13.63
2023-04-11T17:57:49.381Z,13.55
2023-04-11T18:02:57.340Z,13.47
2023-04-11T18:08:04.210Z,13.40
2023-04-11T18:13:10.285Z,13.33
2023-04-11T18:18:16.314Z,13.27
2023-04-11T18:23:23.462Z,13.21
2023-04-11T18:28:29.769Z,13.16
2023-04-11T18:33:42.128Z,13.11
2023-04-11T18:38:49.164Z,13.06
2023-04-11T18:43:55.054Z,13.03
2023-04-11T18:49:00.718Z,12.96
2023-04-11T18:54:06.775Z,12.88
2023-04-11T18:59:14.909Z,12.79
2023-04-11T19:04:23.677Z,12.72
2023-04-11T19:09:30.347Z,12.70
2023-04-11T19:14:36.208Z,12.70
2023-04-11T19:19:42.929Z,12.70
2023-04-11T19:24:49.453Z,12.68
2023-04-11T19:29:55.553Z,12.67
2023-04-11T19:35:01.508Z,12.66
2023-04-11T19:40:11.170Z,12.63
2023-04-11T19:45:17.204Z,12.62
2023-04-11T19:50:23.166Z,12.64
2023-04-11T19:55:30.321Z,12.62
2023-04-11T20:00:37.373Z,12.49
2023-04-11T20:05:43.617Z,12.34
2023-04-11T20:10:49.850Z,12.20
2023-04-11T20:15:55.514Z,12.09
2023-04-11T20:21:02.781Z,11.95
2023-04-11T20:26:08.641Z,11.81
2023-04-11T20:31:14.803Z,11.70
2023-04-11T20:36:20.827Z,11.61
2023-04-11T20:41:26.906Z,11.53
2023-04-11T20:46:38.387Z,11.55
2023-04-11T20:51:44.077Z,11.54
2023-04-11T20:56:49.744Z,11.51
2023-04-11T21:01:55.370Z,11.50
2023-04-11T21:07:00.960Z,11.53
2023-04-11T21:12:07.334Z,11.52
2023-04-11T21:17:12.906Z,11.48
2023-04-11T21:22:18.491Z,11.45
2023-04-11T21:27:24.092Z,11.38
2023-04-11T21:32:30.383Z,11.34
2023-04-11T21:37:36.591Z,11.29
2023-04-11T21:42:42.280Z,11.24
2023-04-11T21:47:49.522Z,11.22
2023-04-11T21:52:55.651Z,11.18
2023-04-11T21:58:01.287Z,11.13
2023-04-11T22:03:07.773Z,11.23
2023-04-11T22:08:19.504Z,11.13
2023-04-11T22:13:25.529Z,10.95
2023-04-11T22:18:31.127Z,10.88
2023-04-11T22:23:37.011Z,10.72
2023-04-11T22:28:42.646Z,10.62
2023-04-11T22:33:48.772Z,10.53
2023-04-11T22:38:54.334Z,10.44
2023-04-11T22:44:00.529Z,10.31
2023-04-11T22:49:09.217Z,10.13
2023-04-11T22:54:15.704Z,9.96
2023-04-11T22:59:21.507Z,9.78
2023-04-11T23:04:27.133Z,9.61
2023-04-11T23:09:32.766Z,9.42
2023-04-11T23:14:38.282Z,9.29
2023-04-11T23:19:43.905Z,9.32
2023-04-11T23:24:49.702Z,9.40
2023-04-11T23:29:55.286Z,9.36
2023-04-11T23:35:01.180Z,9.15
2023-04-11T23:40:11.931Z,9.14
2023-04-11T23:45:22.448Z,9.19
2023-04-11T23:50:28.200Z,9.15
2023-04-11T23:55:33.868Z,9.18
